createdAt,value
2019-02-15T00:02:22.489Z,5.13
2019-02-15T00:04:50.535Z,5.12
2019-02-15T00:07:18.893Z,5.10
2019-02-15T00:09:46.961Z,5.11
2019-02-15T00:12:15.042Z,5.09
2019-02-15T00:14:47.820Z,5.06
2019-02-15T00:17:23.105Z,5.04
2019-02-15T00:19:52.794Z,5.03
2019-02-15T00:22:20.915Z,5.03
2019-02-15T00:24:49.105Z,5.03
2019-02-15T00:27:17.198Z,5.04
2019-02-15T00:29:45.270Z,5.05
2019-02-15T00:32:13.355Z,5.04
2019-02-15T00:34:41.408Z,5.02
2019-02-15T00:37:09.498Z,5.03
2019-02-15T00:39:37.583Z,5.03
2019-02-15T00:42:05.664Z,5.02
2019-02-15T00:44:33.718Z,5.02
2019-02-15T00:47:32.212Z,4.99
2019-02-15T00:50:26.005Z,4.98
2019-02-15T00:53:22.845Z,4.95
2019-02-15T00:56:04.626Z,4.91
2019-02-15T00:59:04.008Z,4.87
2019-02-15T01:01:57.701Z,4.81
2019-02-15T01:04:44.407Z,4.76
2019-02-15T01:07:22.497Z,4.74
2019-02-15T01:09:58.067Z,4.72
2019-02-15T01:12:30.892Z,4.71
2019-02-15T01:14:59.194Z,4.70
2019-02-15T01:17:27.683Z,4.68
2019-02-15T01:19:56.009Z,4.67
2019-02-15T01:22:24.491Z,4.66
2019-02-15T01:24:52.664Z,4.65
2019-02-15T01:27:46.289Z,4.63
2019-02-15T01:30:40.104Z,4.62
2019-02-15T01:33:26.437Z,4.59
2019-02-15T01:36:12.486Z,4.54
2019-02-15T01:38:47.303Z,4.51
2019-02-15T01:41:27.696Z,4.48
2019-02-15T01:44:04.221Z,4.47
2019-02-15T01:46:46.180Z,4.46
2019-02-15T01:49:15.388Z,4.42
2019-02-15T01:51:43.437Z,4.38
2019-02-15T01:54:11.514Z,4.34
2019-02-15T01:56:39.571Z,4.30
2019-02-15T01:59:07.694Z,4.20
2019-02-15T02:01:36.017Z,4.11
2019-02-15T02:04:04.105Z,4.08
2019-02-15T02:06:32.279Z,4.06
2019-02-15T02:09:00.391Z,4.05
2019-02-15T02:11:29.773Z,4.04
2019-02-15T02:13:57.860Z,3.99
2019-02-15T02:16:26.157Z,3.93
2019-02-15T02:18:54.233Z,3.90
2019-02-15T02:21:22.827Z,3.87
2019-02-15T02:23:50.915Z,3.86
2019-02-15T02:26:19.106Z,3.86
2019-02-15T02:28:47.194Z,3.85
2019-02-15T02:31:15.391Z,3.86
2019-02-15T02:33:44.717Z,3.86
2019-02-15T02:36:12.778Z,3.84
2019-02-15T02:38:40.857Z,3.82
2019-02-15T02:41:09.129Z,3.80
2019-02-15T02:43:37.466Z,3.78
2019-02-15T02:46:05.816Z,3.75
2019-02-15T02:48:33.908Z,3.72
2019-02-15T02:51:01.954Z,3.70
2019-02-15T02:53:30.026Z,3.69
2019-02-15T02:55:58.085Z,3.66
2019-02-15T02:58:26.156Z,3.65
2019-02-15T03:00:54.210Z,3.62
2019-02-15T03:03:22.269Z,3.58
2019-02-15T03:05:50.351Z,3.57
2019-02-15T03:08:19.636Z,3.54
2019-02-15T03:10:49.188Z,3.51
2019-02-15T03:13:17.323Z,3.48
2019-02-15T03:15:45.676Z,3.47
2019-02-15T03:18:13.740Z,3.43
2019-02-15T03:20:41.793Z,3.40
2019-02-15T03:23:09.872Z,3.38
2019-02-15T03:25:38.153Z,3.35
2019-02-15T03:28:06.525Z,3.32
2019-02-15T03:30:34.600Z,3.30
2019-02-15T03:33:02.847Z,3.27
2019-02-15T03:35:30.943Z,3.26
2019-02-15T03:38:21.152Z,3.21
2019-02-15T03:40:54.444Z,3.18
2019-02-15T03:43:22.487Z,3.14
2019-02-15T03:45:50.643Z,3.09
2019-02-15T03:48:19.581Z,3.02
2019-02-15T03:50:47.775Z,2.94
2019-02-15T03:53:15.816Z,2.86
2019-02-15T03:55:43.877Z,2.78
2019-02-15T03:58:11.905Z,2.74
2019-02-15T04:00:39.983Z,2.72
2019-02-15T04:03:08.054Z,2.72
2019-02-15T04:05:36.116Z,2.73
2019-02-15T04:08:04.189Z,2.71
2019-02-15T04:10:32.270Z,2.69
2019-02-15T04:13:00.612Z,2.69
2019-02-15T04:15:28.977Z,2.67
2019-02-15T04:17:57.259Z,2.68
2019-02-15T04:20:25.338Z,2.70
2019-02-15T04:22:53.387Z,2.69
2019-02-15T04:25:21.432Z,2.68
2019-02-15T04:27:49.487Z,2.68
2019-02-15T04:30:17.673Z,2.64
2019-02-15T04:32:47.770Z,2.62
2019-02-15T04:35:16.199Z,2.60
2019-02-15T04:37:44.227Z,2.60
2019-02-15T04:40:12.260Z,2.60
2019-02-15T04:42:40.629Z,2.61
2019-02-15T04:45:08.755Z,2.63
2019-02-15T04:47:36.849Z,2.65
2019-02-15T04:50:06.836Z,2.66
2019-02-15T04:52:34.865Z,2.66
2019-02-15T04:55:03.375Z,2.67
2019-02-15T04:57:31.417Z,2.66
2019-02-15T04:59:59.508Z,2.65
2019-02-15T05:02:28.724Z,2.64
2019-02-15T05:04:56.803Z,2.65
2019-02-15T05:07:24.856Z,2.65
2019-02-15T05:09:52.895Z,2.65
2019-02-15T05:12:21.686Z,2.66
2019-02-15T05:14:53.056Z,2.67
2019-02-15T05:17:20.204Z,2.69
2019-02-15T05:19:48.326Z,2.70
2019-02-15T05:22:16.501Z,2.71
2019-02-15T05:24:44.704Z,2.71
2019-02-15T05:27:13.040Z,2.69
2019-02-15T05:29:41.107Z,2.70
2019-02-15T05:32:09.176Z,2.70
2019-02-15T05:34:37.599Z,2.70
2019-02-15T05:37:05.626Z,2.74
2019-02-15T05:39:35.787Z,2.77
2019-02-15T05:42:05.048Z,2.77
2019-02-15T05:44:33.513Z,2.74
2019-02-15T05:47:02.963Z,2.74
2019-02-15T05:49:31.057Z,2.74
2019-02-15T05:51:59.160Z,2.73
2019-02-15T05:54:27.646Z,2.72
2019-02-15T05:56:55.747Z,2.71
2019-02-15T05:59:23.889Z,2.70
2019-02-15T06:01:51.955Z,2.69
2019-02-15T06:04:21.159Z,2.71
2019-02-15T06:06:49.351Z,2.70
2019-02-15T06:09:17.385Z,2.69
2019-02-15T06:11:45.838Z,2.68
2019-02-15T06:14:14.134Z,2.66
2019-02-15T06:16:42.308Z,2.65
2019-02-15T06:19:10.379Z,2.66
2019-02-15T06:21:38.457Z,2.66
2019-02-15T06:24:06.634Z,2.66
2019-02-15T06:26:34.680Z,2.66
2019-02-15T06:29:03.849Z,2.67
2019-02-15T06:31:31.939Z,2.66
2019-02-15T06:34:00.049Z,2.66
2019-02-15T06:36:33.187Z,2.66
2019-02-15T06:39:01.232Z,2.64
2019-02-15T06:41:33.006Z,2.62
2019-02-15T06:44:01.769Z,2.60
2019-02-15T06:46:29.825Z,2.59
2019-02-15T06:49:00.372Z,2.60
2019-02-15T06:51:28.443Z,2.61
2019-02-15T06:53:56.957Z,2.62
2019-02-15T06:56:25.007Z,2.64
2019-02-15T06:59:10.069Z,2.66
2019-02-15T07:01:43.440Z,2.67
2019-02-15T07:04:20.953Z,2.68
2019-02-15T07:06:49.133Z,2.69
2019-02-15T07:09:17.149Z,2.71
2019-02-15T07:11:45.446Z,2.74
2019-02-15T07:14:13.514Z,2.79
2019-02-15T07:16:41.644Z,2.83
2019-02-15T07:19:09.673Z,2.91
2019-02-15T07:21:38.983Z,3.00
2019-02-15T07:24:07.023Z,3.10
2019-02-15T07:26:36.108Z,3.23
2019-02-15T07:29:04.193Z,3.41
2019-02-15T07:31:32.282Z,3.61
2019-02-15T07:34:00.778Z,3.81
2019-02-15T07:36:28.826Z,4.05
2019-02-15T07:38:57.573Z,4.33
2019-02-15T07:41:25.621Z,4.63
2019-02-15T07:43:53.681Z,4.95
2019-02-15T07:46:22.733Z,5.30
2019-02-15T07:48:50.798Z,5.66
2019-02-15T07:51:18.851Z,6.01
2019-02-15T07:53:46.879Z,6.39
2019-02-15T07:56:15.023Z,6.79
2019-02-15T07:58:43.176Z,7.20
2019-02-15T08:01:11.245Z,7.64
2019-02-15T08:03:39.313Z,8.06
2019-02-15T08:06:07.368Z,8.47
2019-02-15T08:08:35.399Z,8.91
2019-02-15T08:11:05.281Z,9.32
2019-02-15T08:13:33.682Z,9.64
2019-02-15T08:16:02.933Z,9.98
2019-02-15T08:18:31.219Z,10.32
2019-02-15T08:20:59.258Z,10.67
2019-02-15T08:23:27.315Z,10.98
2019-02-15T08:25:55.381Z,11.29
2019-02-15T08:28:23.876Z,11.62
2019-02-15T08:30:51.923Z,11.99
2019-02-15T08:33:20.237Z,12.36
2019-02-15T08:35:48.545Z,12.68
2019-02-15T08:38:17.938Z,12.99
2019-02-15T08:40:45.978Z,13.29
2019-02-15T08:43:14.421Z,13.57
2019-02-15T08:45:42.870Z,13.84
2019-02-15T08:48:11.224Z,14.13
2019-02-15T08:50:39.237Z,14.42
2019-02-15T08:53:07.373Z,14.73
2019-02-15T08:55:35.644Z,15.04
2019-02-15T08:58:03.796Z,15.38
2019-02-15T09:00:31.876Z,15.69
2019-02-15T09:03:00.099Z,16.04
2019-02-15T09:05:28.116Z,16.40
2019-02-15T09:07:56.245Z,16.79
2019-02-15T09:10:24.421Z,17.18
2019-02-15T09:12:52.442Z,17.45
2019-02-15T09:15:21.139Z,17.64
2019-02-15T09:17:49.255Z,17.90
2019-02-15T09:20:17.612Z,18.25
2019-02-15T09:22:45.753Z,18.63
2019-02-15T09:25:14.881Z,18.99
2019-02-15T09:28:02.637Z,19.35
2019-02-15T09:30:30.784Z,19.61
2019-02-15T09:32:59.229Z,19.86
2019-02-15T09:35:27.261Z,20.11
2019-02-15T09:37:55.619Z,20.39
2019-02-15T09:40:24.563Z,20.65
2019-02-15T09:42:54.288Z,20.90
2019-02-15T09:45:22.329Z,21.15
2019-02-15T09:47:50.407Z,21.35
2019-02-15T09:50:18.467Z,21.56
2019-02-15T09:52:46.526Z,21.80
2019-02-15T09:55:14.587Z,22.07
2019-02-15T09:57:43.748Z,22.33
2019-02-15T10:00:11.778Z,22.59
2019-02-15T10:02:40.285Z,22.84
2019-02-15T10:05:08.307Z,23.00
2019-02-15T10:07:36.406Z,23.11
2019-02-15T10:10:05.481Z,23.26
2019-02-15T10:12:33.543Z,23.40
2019-02-15T10:18:04.968Z,23.68
2019-02-15T10:20:33.057Z,23.83
2019-02-15T10:23:01.117Z,23.89
2019-02-15T10:25:29.140Z,23.86
2019-02-15T10:27:57.532Z,23.82
2019-02-15T10:30:25.583Z,23.69
2019-02-15T10:32:54.020Z,23.61
2019-02-15T10:35:22.122Z,23.63
2019-02-15T10:37:50.179Z,23.67
2019-02-15T10:40:18.276Z,23.65
2019-02-15T10:42:46.298Z,23.67
2019-02-15T10:45:14.734Z,23.73
2019-02-15T10:47:42.772Z,23.83
2019-02-15T10:50:11.986Z,24.04
2019-02-15T10:52:40.002Z,24.30
2019-02-15T10:55:08.231Z,24.59
2019-02-15T10:57:36.411Z,24.91
2019-02-15T11:00:09.793Z,25.20
2019-02-15T11:02:38.111Z,25.48
2019-02-15T11:05:06.796Z,25.70
2019-02-15T11:07:34.863Z,25.89
2019-02-15T11:10:03.762Z,26.11
2019-02-15T11:12:32.908Z,26.32
2019-02-15T11:15:01.106Z,26.50
2019-02-15T11:17:29.162Z,26.67
2019-02-15T11:19:58.315Z,26.87
2019-02-15T11:22:26.392Z,27.05
2019-02-15T11:24:54.417Z,27.20
2019-02-15T11:27:22.526Z,27.38
2019-02-15T11:29:50.652Z,27.58
2019-02-15T11:32:18.721Z,27.80
2019-02-15T11:34:46.839Z,28.02
2019-02-15T11:37:15.263Z,28.27
2019-02-15T11:39:43.358Z,28.50
2019-02-15T11:42:11.569Z,28.67
2019-02-15T11:44:40.378Z,28.79
2019-02-15T11:47:09.449Z,28.94
2019-02-15T11:49:37.490Z,29.09
2019-02-15T11:52:05.996Z,29.20
2019-02-15T11:54:34.428Z,29.37
2019-02-15T11:57:02.758Z,29.55
2019-02-15T11:59:32.669Z,29.68
2019-02-15T12:02:06.329Z,29.77
2019-02-15T12:04:30.924Z,29.95
2019-02-15T12:06:59.102Z,30.11
2019-02-15T12:09:27.134Z,30.30
2019-02-15T12:11:55.185Z,30.44
2019-02-15T12:14:27.510Z,30.58
2019-02-15T12:16:55.922Z,30.68
2019-02-15T12:19:24.316Z,30.79
2019-02-15T12:21:52.389Z,30.84
2019-02-15T12:24:20.449Z,30.83
2019-02-15T12:26:48.483Z,30.78
2019-02-15T12:29:16.666Z,30.81
2019-02-15T12:31:45.095Z,30.90
2019-02-15T12:34:13.214Z,31.01
2019-02-15T12:36:41.255Z,31.04
2019-02-15T12:39:12.736Z,30.96
2019-02-15T12:41:40.002Z,30.89
2019-02-15T12:44:08.233Z,30.72
2019-02-15T12:46:39.004Z,30.55
2019-02-15T12:49:07.065Z,30.36
2019-02-15T12:51:35.282Z,30.17
2019-02-15T12:54:03.643Z,29.99
2019-02-15T12:56:32.525Z,29.85
2019-02-15T12:59:01.062Z,29.71
2019-02-15T13:01:29.208Z,29.63
2019-02-15T13:03:57.676Z,29.50
2019-02-15T13:06:28.758Z,29.36
2019-02-15T13:08:58.079Z,29.26
2019-02-15T13:11:26.140Z,29.23
2019-02-15T13:13:54.262Z,29.24
2019-02-15T13:16:22.482Z,29.30
2019-02-15T13:18:50.935Z,29.34
2019-02-15T13:21:19.046Z,29.33
2019-02-15T13:23:47.090Z,29.29
2019-02-15T13:26:15.321Z,29.26
2019-02-15T13:28:43.800Z,29.26
2019-02-15T13:31:12.545Z,29.23
2019-02-15T13:33:40.658Z,29.27
2019-02-15T13:36:08.864Z,29.37
2019-02-15T13:38:37.097Z,29.54
2019-02-15T13:41:05.222Z,29.70
2019-02-15T13:43:33.924Z,29.82
2019-02-15T13:46:02.000Z,29.94
2019-02-15T13:48:30.082Z,30.05
2019-02-15T13:50:58.130Z,30.16
2019-02-15T13:53:26.243Z,30.27
2019-02-15T13:55:55.567Z,30.30
2019-02-15T13:58:24.487Z,30.28
2019-02-15T14:00:52.700Z,30.25
2019-02-15T14:03:20.808Z,30.19
2019-02-15T14:05:48.937Z,30.14
2019-02-15T14:08:17.059Z,30.06
2019-02-15T14:10:45.185Z,30.02
2019-02-15T14:13:13.276Z,29.99
2019-02-15T14:15:41.344Z,29.96
2019-02-15T14:18:09.508Z,29.91
2019-02-15T14:20:37.516Z,29.96
2019-02-15T14:23:05.597Z,30.02
2019-02-15T14:25:33.701Z,30.11
2019-02-15T14:28:01.790Z,30.10
2019-02-15T14:30:30.189Z,30.05
2019-02-15T14:32:58.139Z,30.00
2019-02-15T14:35:26.275Z,29.99
2019-02-15T14:37:54.326Z,29.98
2019-02-15T14:40:22.397Z,29.93
2019-02-15T14:42:50.840Z,29.85
2019-02-15T14:45:19.089Z,29.78
2019-02-15T14:47:54.502Z,29.72
2019-02-15T14:50:17.804Z,29.67
2019-02-15T14:52:46.198Z,29.56
2019-02-15T14:55:14.304Z,29.40
2019-02-15T14:57:42.340Z,29.22
2019-02-15T15:00:11.276Z,29.06
2019-02-15T15:02:39.327Z,28.91
2019-02-15T15:05:07.636Z,28.79
2019-02-15T15:07:35.692Z,28.66
2019-02-15T15:10:04.627Z,28.53
2019-02-15T15:12:32.727Z,28.43
2019-02-15T15:15:00.813Z,28.29
2019-02-15T15:17:28.945Z,28.20
2019-02-15T15:19:58.226Z,28.08
2019-02-15T15:22:26.842Z,27.92
2019-02-15T15:24:54.969Z,27.78
2019-02-15T15:27:23.046Z,27.62
2019-02-15T15:29:51.112Z,27.46
2019-02-15T15:32:20.597Z,27.25
2019-02-15T15:34:48.705Z,27.01
2019-02-15T15:37:17.899Z,26.75
2019-02-15T15:39:46.544Z,26.51
2019-02-15T15:42:14.782Z,26.35
2019-02-15T15:44:43.282Z,26.17
2019-02-15T15:47:13.147Z,26.01
2019-02-15T15:49:41.233Z,25.85
2019-02-15T15:52:09.323Z,25.67
2019-02-15T15:54:37.519Z,25.48
2019-02-15T15:57:05.572Z,25.27
2019-02-15T15:59:33.817Z,25.09
2019-02-15T16:02:01.842Z,24.86
2019-02-15T16:04:30.195Z,24.62
2019-02-15T16:06:58.213Z,24.38
2019-02-15T16:09:26.741Z,24.14
2019-02-15T16:11:54.799Z,23.87
2019-02-15T16:14:24.284Z,23.59
2019-02-15T16:16:52.874Z,23.29
2019-02-15T16:19:21.596Z,22.98
2019-02-15T16:21:51.207Z,22.68
2019-02-15T16:24:19.640Z,22.37
2019-02-15T16:26:47.734Z,22.07
2019-02-15T16:29:15.900Z,21.79
2019-02-15T16:31:44.000Z,21.48
2019-02-15T16:34:12.658Z,21.18
2019-02-15T16:36:40.804Z,20.92
2019-02-15T16:39:10.011Z,20.66
2019-02-15T16:41:38.277Z,20.43
2019-02-15T16:44:06.329Z,20.22
2019-02-15T16:46:34.434Z,20.01
2019-02-15T16:49:02.924Z,19.81
2019-02-15T16:51:31.078Z,19.59
2019-02-15T16:53:59.180Z,19.38
2019-02-15T16:56:28.271Z,19.18
2019-02-15T16:58:56.313Z,18.97
2019-02-15T17:01:24.399Z,18.77
2019-02-15T17:03:52.456Z,18.55
2019-02-15T17:06:20.863Z,18.34
2019-02-15T17:08:49.840Z,18.15
2019-02-15T17:11:18.215Z,17.95
2019-02-15T17:13:50.968Z,17.75
2019-02-15T17:16:19.327Z,17.56
2019-02-15T17:37:07.367Z,15.89
2019-02-15T17:39:36.742Z,15.61
2019-02-15T17:42:04.940Z,15.38
2019-02-15T17:44:33.001Z,15.17
2019-02-15T17:47:02.482Z,14.95
2019-02-15T17:49:30.677Z,14.73
2019-02-15T17:51:58.812Z,14.51
2019-02-15T17:54:28.646Z,14.33
2019-02-15T17:56:56.949Z,14.16
2019-02-15T17:59:25.052Z,14.02
2019-02-15T18:01:53.153Z,13.90
2019-02-15T18:04:21.298Z,13.78
2019-02-15T18:06:49.837Z,13.64
2019-02-15T18:09:18.157Z,13.51
2019-02-15T18:11:46.423Z,13.38
2019-02-15T18:14:14.503Z,13.25
2019-02-15T18:16:42.640Z,13.11
2019-02-15T18:19:12.168Z,12.97
2019-02-15T18:21:40.628Z,12.83
2019-02-15T18:24:08.689Z,12.68
2019-02-15T18:26:37.065Z,12.55
2019-02-15T18:29:06.375Z,12.41
2019-02-15T18:31:34.510Z,12.26
2019-02-15T18:34:02.568Z,12.12
2019-02-15T18:36:32.093Z,11.97
2019-02-15T18:39:01.386Z,11.82
2019-02-15T18:41:30.103Z,11.66
2019-02-15T18:43:58.570Z,11.49
2019-02-15T18:46:26.654Z,11.29
2019-02-15T18:48:55.143Z,11.08
2019-02-15T18:51:23.618Z,10.84
2019-02-15T18:53:52.085Z,10.63
2019-02-15T18:56:20.375Z,10.48
2019-02-15T18:58:49.685Z,10.35
2019-02-15T19:01:18.338Z,10.25
2019-02-15T19:03:46.534Z,10.15
2019-02-15T19:06:14.694Z,10.06
2019-02-15T19:08:44.285Z,9.96
2019-02-15T19:11:12.437Z,9.84
2019-02-15T19:13:41.356Z,9.78
2019-02-15T19:16:10.805Z,9.72
2019-02-15T19:18:39.007Z,9.68
2019-02-15T19:21:07.310Z,9.64
2019-02-15T19:23:35.568Z,9.61
2019-02-15T19:26:04.155Z,9.57
2019-02-15T19:28:32.227Z,9.54
2019-02-15T19:31:00.860Z,9.49
2019-02-15T19:33:29.256Z,9.45
2019-02-15T19:35:57.399Z,9.38
2019-02-15T19:38:25.523Z,9.29
2019-02-15T19:40:53.627Z,9.22
2019-02-15T19:43:21.821Z,9.14
2019-02-15T19:45:52.596Z,9.08
2019-02-15T19:48:20.700Z,9.02
2019-02-15T19:50:48.753Z,8.95
2019-02-15T19:53:16.879Z,8.89
2019-02-15T19:55:45.097Z,8.84
2019-02-15T19:58:13.588Z,8.80
2019-02-15T20:00:42.606Z,8.75
2019-02-15T20:03:10.811Z,8.69
2019-02-15T20:05:38.991Z,8.64
2019-02-15T20:08:07.457Z,8.57
2019-02-15T20:10:35.674Z,8.52
2019-02-15T20:13:05.166Z,8.43
2019-02-15T20:15:33.395Z,8.37
2019-02-15T20:18:02.412Z,8.29
2019-02-15T20:20:32.224Z,8.25
2019-02-15T20:23:00.834Z,8.17
2019-02-15T20:25:29.914Z,8.10
2019-02-15T20:27:58.771Z,8.02
2019-02-15T20:30:27.011Z,7.94
2019-02-15T20:32:55.478Z,7.87
2019-02-15T20:35:24.246Z,7.83
2019-02-15T20:37:53.000Z,7.80
2019-02-15T20:40:21.244Z,7.78
2019-02-15T20:42:49.397Z,7.78
2019-02-15T20:45:19.371Z,7.78
2019-02-15T20:47:47.708Z,7.75
2019-02-15T20:50:16.109Z,7.74
2019-02-15T20:52:46.114Z,7.71
2019-02-15T20:55:14.696Z,7.67
2019-02-15T20:57:43.125Z,7.64
2019-02-15T21:00:15.278Z,7.58
2019-02-15T21:02:44.528Z,7.57
2019-02-15T21:05:12.992Z,7.55
2019-02-15T21:07:41.417Z,7.54
2019-02-15T21:10:10.864Z,7.53
2019-02-15T21:12:39.955Z,7.53
2019-02-15T21:15:08.801Z,7.51
2019-02-15T21:17:37.362Z,7.49
2019-02-15T21:20:08.128Z,7.48
2019-02-15T21:22:36.724Z,7.46
2019-02-15T21:25:06.371Z,7.44
2019-02-15T21:27:34.779Z,7.42
2019-02-15T21:30:03.903Z,7.38
2019-02-15T21:32:33.306Z,7.36
2019-02-15T21:35:01.520Z,7.35
2019-02-15T21:37:29.736Z,7.33
2019-02-15T21:39:57.974Z,7.32
2019-02-15T21:42:26.163Z,7.33
2019-02-15T21:44:54.247Z,7.33
2019-02-15T21:47:22.405Z,7.34
2019-02-15T21:49:50.514Z,7.33
2019-02-15T21:52:18.629Z,7.31
2019-02-15T21:54:46.729Z,7.31
2019-02-15T21:57:14.841Z,7.28
2019-02-15T21:59:43.096Z,7.27
2019-02-15T22:02:11.284Z,7.27
2019-02-15T22:04:39.357Z,7.25
2019-02-15T22:07:07.439Z,7.25
2019-02-15T22:09:35.919Z,7.22
2019-02-15T22:12:04.630Z,7.22
2019-02-15T22:14:34.224Z,7.19
2019-02-15T22:17:02.804Z,7.18
2019-02-15T22:19:30.930Z,7.17
2019-02-15T22:22:02.190Z,7.18
2019-02-15T22:24:32.375Z,7.19
2019-02-15T22:27:00.531Z,7.18
2019-02-15T22:29:29.241Z,7.19
2019-02-15T22:31:57.665Z,7.22
2019-02-15T22:34:27.171Z,7.21
2019-02-15T22:36:55.221Z,7.23
2019-02-15T22:39:23.425Z,7.22
2019-02-15T22:41:51.801Z,7.23
2019-02-15T22:44:21.597Z,7.24
2019-02-15T22:46:49.661Z,7.25
2019-02-15T22:49:17.758Z,7.24
2019-02-15T22:51:47.003Z,7.24
2019-02-15T22:54:15.400Z,7.25
2019-02-15T22:56:44.070Z,7.24
2019-02-15T22:59:12.221Z,7.21
2019-02-15T23:01:40.681Z,7.20
2019-02-15T23:04:08.765Z,7.20
2019-02-15T23:06:36.820Z,7.20
2019-02-15T23:09:19.140Z,7.19
2019-02-15T23:11:47.248Z,7.16
2019-02-15T23:14:15.375Z,7.13
2019-02-15T23:16:45.061Z,7.11
2019-02-15T23:19:13.372Z,7.11
2019-02-15T23:21:41.425Z,7.09
2019-02-15T23:24:09.528Z,7.07
2019-02-15T23:26:38.713Z,7.04
2019-02-15T23:29:06.914Z,7.03
2019-02-15T23:31:34.979Z,7.03
2019-02-15T23:34:03.324Z,7.02
2019-02-15T23:36:32.992Z,7.01
2019-02-15T23:39:01.058Z,6.98
2019-02-15T23:41:31.008Z,6.96
2019-02-15T23:43:59.089Z,6.97
2019-02-15T23:46:27.131Z,6.95
2019-02-15T23:48:55.523Z,6.96
2019-02-15T23:51:23.953Z,6.97
2019-02-15T23:53:52.041Z,6.97
2019-02-15T23:56:20.138Z,6.96
2019-02-15T23:58:48.596Z,6.96
